sensor_id;sensor_type;location;lat;lon;timestamp;P1;durP1;ratioP1;P2;durP2;ratioP2
46491;SDS011;32206;51.446;6.792;2022-09-09T00:04:27;1.55;;;0.50;;
46491;SDS011;32206;51.446;6.792;2022-09-09T00:09:45;1.50;;;0.93;;
46491;SDS011;32206;51.446;6.792;2022-09-09T00:12:36;1.90;;;0.80;;
46491;SDS011;32206;51.446;6.792;2022-09-09T00:15:13;2.30;;;0.77;;
46491;SDS011;32206;51.446;6.792;2022-09-09T00:28:30;3.40;;;0.40;;
46491;SDS011;32206;51.446;6.792;2022-09-09T00:30:59;1.10;;;0.50;;
46491;SDS011;32206;51.446;6.792;2022-09-09T00:33:35;2.10;;;1.02;;
46491;SDS011;32206;51.446;6.792;2022-09-09T00:36:04;1.30;;;0.50;;
46491;SDS011;32206;51.446;6.792;2022-09-09T00:38:48;2.50;;;0.60;;
46491;SDS011;32206;51.446;6.792;2022-09-09T00:44:01;2.53;;;0.50;;
46491;SDS011;32206;51.446;6.792;2022-09-09T00:52:27;2.15;;;0.68;;
46491;SDS011;32206;51.446;6.792;2022-09-09T00:57:52;2.92;;;0.70;;
46491;SDS011;32206;51.446;6.792;2022-09-09T01:03:13;1.90;;;1.00;;
46491;SDS011;32206;51.446;6.792;2022-09-09T01:05:50;0.93;;;0.80;;
46491;SDS011;32206;51.446;6.792;2022-09-09T01:11:03;2.13;;;0.70;;
46491;SDS011;32206;51.446;6.792;2022-09-09T01:13:30;1.42;;;0.55;;
46491;SDS011;32206;51.446;6.792;2022-09-09T01:15:59;4.00;;;0.60;;
46491;SDS011;32206;51.446;6.792;2022-09-09T01:18:32;0.77;;;0.70;;
46491;SDS011;32206;51.446;6.792;2022-09-09T01:27:10;1.52;;;0.65;;
46491;SDS011;32206;51.446;6.792;2022-09-09T01:29:37;1.67;;;0.77;;
46491;SDS011;32206;51.446;6.792;2022-09-09T01:32:37;1.50;;;0.63;;
46491;SDS011;32206;51.446;6.792;2022-09-09T01:35:07;0.80;;;0.70;;
46491;SDS011;32206;51.446;6.792;2022-09-09T01:37:40;1.77;;;0.77;;
46491;SDS011;32206;51.446;6.792;2022-09-09T01:40:06;1.25;;;0.45;;
46491;SDS011;32206;51.446;6.792;2022-09-09T01:42:32;3.97;;;0.70;;
46491;SDS011;32206;51.446;6.792;2022-09-09T01:44:58;2.92;;;1.00;;
46491;SDS011;32206;51.446;6.792;2022-09-09T01:47:23;1.55;;;0.98;;
46491;SDS011;32206;51.446;6.792;2022-09-09T01:49:49;1.45;;;0.90;;
46491;SDS011;32206;51.446;6.792;2022-09-09T01:52:15;1.98;;;0.90;;
46491;SDS011;32206;51.446;6.792;2022-09-09T01:54:40;1.63;;;0.80;;
46491;SDS011;32206;51.446;6.792;2022-09-09T01:59:58;3.08;;;1.38;;
46491;SDS011;32206;51.446;6.792;2022-09-09T02:05:40;4.13;;;1.00;;
46491;SDS011;32206;51.446;6.792;2022-09-09T02:08:15;6.20;;;1.38;;
46491;SDS011;32206;51.446;6.792;2022-09-09T02:10:54;1.77;;;1.17;;
46491;SDS011;32206;51.446;6.792;2022-09-09T02:13:23;4.07;;;1.63;;
46491;SDS011;32206;51.446;6.792;2022-09-09T02:15:55;1.55;;;0.93;;
46491;SDS011;32206;51.446;6.792;2022-09-09T02:18:32;3.38;;;1.27;;
46491;SDS011;32206;51.446;6.792;2022-09-09T02:21:09;4.38;;;1.25;;
46491;SDS011;32206;51.446;6.792;2022-09-09T02:23:36;2.42;;;1.30;;
46491;SDS011;32206;51.446;6.792;2022-09-09T02:26:04;3.17;;;1.23;;
46491;SDS011;32206;51.446;6.792;2022-09-09T02:28:32;4.25;;;1.58;;
46491;SDS011;32206;51.446;6.792;2022-09-09T02:31:01;1.75;;;1.15;;
46491;SDS011;32206;51.446;6.792;2022-09-09T02:33:28;0.95;;;0.70;;
46491;SDS011;32206;51.446;6.792;2022-09-09T02:35:59;2.78;;;0.80;;
46491;SDS011;32206;51.446;6.792;2022-09-09T02:38:28;1.88;;;0.98;;
46491;SDS011;32206;51.446;6.792;2022-09-09T02:40:58;0.77;;;0.60;;
46491;SDS011;32206;51.446;6.792;2022-09-09T02:43:24;3.60;;;0.90;;
46491;SDS011;32206;51.446;6.792;2022-09-09T02:45:55;2.35;;;1.20;;
46491;SDS011;32206;51.446;6.792;2022-09-09T02:51:23;1.55;;;1.02;;
46491;SDS011;32206;51.446;6.792;2022-09-09T02:54:02;1.65;;;0.73;;
46491;SDS011;32206;51.446;6.792;2022-09-09T02:56:37;3.28;;;0.90;;
46491;SDS011;32206;51.446;6.792;2022-09-09T02:59:07;3.03;;;1.17;;
46491;SDS011;32206;51.446;6.792;2022-09-09T03:01:33;1.98;;;0.60;;
46491;SDS011;32206;51.446;6.792;2022-09-09T03:04:00;3.67;;;0.70;;
46491;SDS011;32206;51.446;6.792;2022-09-09T03:06:27;0.70;;;0.70;;
46491;SDS011;32206;51.446;6.792;2022-09-09T03:08:53;3.35;;;1.17;;
46491;SDS011;32206;51.446;6.792;2022-09-09T03:11:18;1.88;;;0.98;;
46491;SDS011;32206;51.446;6.792;2022-09-09T03:13:44;2.63;;;1.33;;
46491;SDS011;32206;51.446;6.792;2022-09-09T03:16:09;3.33;;;1.25;;
46491;SDS011;32206;51.446;6.792;2022-09-09T03:18:35;1.48;;;0.95;;
46491;SDS011;32206;51.446;6.792;2022-09-09T03:21:01;3.28;;;1.00;;
46491;SDS011;32206;51.446;6.792;2022-09-09T03:23:26;4.18;;;1.40;;
46491;SDS011;32206;51.446;6.792;2022-09-09T03:25:53;4.60;;;1.55;;
46491;SDS011;32206;51.446;6.792;2022-09-09T03:28:21;3.22;;;1.02;;
46491;SDS011;32206;51.446;6.792;2022-09-09T03:30:48;5.22;;;1.25;;
46491;SDS011;32206;51.446;6.792;2022-09-09T03:33:14;3.13;;;1.20;;
46491;SDS011;32206;51.446;6.792;2022-09-09T03:35:44;2.58;;;1.25;;
46491;SDS011;32206;51.446;6.792;2022-09-09T03:38:12;1.65;;;1.33;;
46491;SDS011;32206;51.446;6.792;2022-09-09T03:40:38;2.13;;;1.38;;
46491;SDS011;32206;51.446;6.792;2022-09-09T03:43:04;3.25;;;0.95;;
46491;SDS011;32206;51.446;6.792;2022-09-09T03:45:29;3.00;;;1.25;;
46491;SDS011;32206;51.446;6.792;2022-09-09T03:47:55;5.88;;;1.30;;
46491;SDS011;32206;51.446;6.792;2022-09-09T03:50:22;2.17;;;1.40;;
46491;SDS011;32206;51.446;6.792;2022-09-09T03:52:48;3.38;;;1.40;;
46491;SDS011;32206;51.446;6.792;2022-09-09T03:55:14;3.75;;;1.50;;
46491;SDS011;32206;51.446;6.792;2022-09-09T03:57:39;5.80;;;1.80;;
46491;SDS011;32206;51.446;6.792;2022-09-09T04:00:06;2.22;;;0.85;;
46491;SDS011;32206;51.446;6.792;2022-09-09T04:02:32;4.30;;;1.52;;
46491;SDS011;32206;51.446;6.792;2022-09-09T04:04:58;2.70;;;1.13;;
46491;SDS011;32206;51.446;6.792;2022-09-09T04:07:24;6.50;;;1.15;;
46491;SDS011;32206;51.446;6.792;2022-09-09T04:09:52;2.13;;;1.52;;
46491;SDS011;32206;51.446;6.792;2022-09-09T04:12:18;5.43;;;1.52;;
46491;SDS011;32206;51.446;6.792;2022-09-09T04:14:43;4.60;;;2.30;;
46491;SDS011;32206;51.446;6.792;2022-09-09T04:17:09;3.15;;;1.15;;
46491;SDS011;32206;51.446;6.792;2022-09-09T04:19:35;4.18;;;1.42;;
46491;SDS011;32206;51.446;6.792;2022-09-09T04:22:00;5.05;;;1.45;;
46491;SDS011;32206;51.446;6.792;2022-09-09T04:24:26;3.55;;;1.27;;
46491;SDS011;32206;51.446;6.792;2022-09-09T04:26:52;4.95;;;1.50;;
46491;SDS011;32206;51.446;6.792;2022-09-09T04:29:17;4.43;;;1.80;;
46491;SDS011;32206;51.446;6.792;2022-09-09T04:31:43;9.25;;;2.38;;
46491;SDS011;32206;51.446;6.792;2022-09-09T04:34:09;4.97;;;1.60;;
46491;SDS011;32206;51.446;6.792;2022-09-09T04:36:35;3.10;;;1.13;;
46491;SDS011;32206;51.446;6.792;2022-09-09T04:39:01;5.65;;;1.67;;
46491;SDS011;32206;51.446;6.792;2022-09-09T04:41:27;3.42;;;1.38;;
46491;SDS011;32206;51.446;6.792;2022-09-09T04:43:53;6.15;;;1.33;;
46491;SDS011;32206;51.446;6.792;2022-09-09T04:46:20;3.72;;;1.48;;
46491;SDS011;32206;51.446;6.792;2022-09-09T04:48:47;5.70;;;1.42;;
46491;SDS011;32206;51.446;6.792;2022-09-09T04:51:14;4.80;;;1.50;;
46491;SDS011;32206;51.446;6.792;2022-09-09T04:53:40;2.85;;;1.30;;
46491;SDS011;32206;51.446;6.792;2022-09-09T04:56:07;2.95;;;1.02;;
46491;SDS011;32206;51.446;6.792;2022-09-09T04:58:37;5.03;;;1.70;;
46491;SDS011;32206;51.446;6.792;2022-09-09T05:01:08;4.07;;;1.83;;
46491;SDS011;32206;51.446;6.792;2022-09-09T05:03:35;4.68;;;1.67;;
46491;SDS011;32206;51.446;6.792;2022-09-09T05:06:08;4.05;;;1.35;;
46491;SDS011;32206;51.446;6.792;2022-09-09T05:08:36;3.92;;;1.45;;
46491;SDS011;32206;51.446;6.792;2022-09-09T05:11:03;11.10;;;4.55;;
46491;SDS011;32206;51.446;6.792;2022-09-09T05:13:38;4.75;;;1.92;;
46491;SDS011;32206;51.446;6.792;2022-09-09T05:16:04;6.47;;;1.85;;
46491;SDS011;32206;51.446;6.792;2022-09-09T05:18:30;4.13;;;1.23;;
46491;SDS011;32206;51.446;6.792;2022-09-09T05:20:58;3.00;;;0.95;;
46491;SDS011;32206;51.446;6.792;2022-09-09T05:23:25;6.35;;;1.27;;
46491;SDS011;32206;51.446;6.792;2022-09-09T05:25:55;1.58;;;1.08;;
46491;SDS011;32206;51.446;6.792;2022-09-09T05:28:21;6.47;;;1.70;;
46491;SDS011;32206;51.446;6.792;2022-09-09T05:30:54;3.97;;;1.20;;
46491;SDS011;32206;51.446;6.792;2022-09-09T05:33:25;5.03;;;1.70;;
46491;SDS011;32206;51.446;6.792;2022-09-09T05:35:55;3.22;;;2.10;;
46491;SDS011;32206;51.446;6.792;2022-09-09T05:38:25;3.58;;;1.27;;
46491;SDS011;32206;51.446;6.792;2022-09-09T05:40:51;4.75;;;1.60;;
46491;SDS011;32206;51.446;6.792;2022-09-09T05:43:17;3.38;;;1.27;;
46491;SDS011;32206;51.446;6.792;2022-09-09T05:45:45;7.60;;;1.35;;
46491;SDS011;32206;51.446;6.792;2022-09-09T05:48:12;8.02;;;1.77;;
46491;SDS011;32206;51.446;6.792;2022-09-09T05:50:41;4.50;;;1.33;;
46491;SDS011;32206;51.446;6.792;2022-09-09T05:53:07;6.68;;;1.23;;
46491;SDS011;32206;51.446;6.792;2022-09-09T05:55:36;8.27;;;1.67;;
46491;SDS011;32206;51.446;6.792;2022-09-09T05:58:02;3.92;;;1.45;;
46491;SDS011;32206;51.446;6.792;2022-09-09T06:00:28;4.85;;;1.30;;
46491;SDS011;32206;51.446;6.792;2022-09-09T06:02:56;2.95;;;1.52;;
46491;SDS011;32206;51.446;6.792;2022-09-09T06:05:22;6.47;;;1.88;;
46491;SDS011;32206;51.446;6.792;2022-09-09T06:07:51;4.60;;;1.95;;
46491;SDS011;32206;51.446;6.792;2022-09-09T06:10:17;6.53;;;1.60;;
46491;SDS011;32206;51.446;6.792;2022-09-09T06:12:44;5.28;;;1.52;;
46491;SDS011;32206;51.446;6.792;2022-09-09T06:15:09;4.88;;;1.60;;
46491;SDS011;32206;51.446;6.792;2022-09-09T06:17:35;9.70;;;1.48;;
46491;SDS011;32206;51.446;6.792;2022-09-09T06:20:01;4.30;;;1.65;;
46491;SDS011;32206;51.446;6.792;2022-09-09T06:22:27;8.95;;;2.58;;
46491;SDS011;32206;51.446;6.792;2022-09-09T06:24:53;10.48;;;2.92;;
46491;SDS011;32206;51.446;6.792;2022-09-09T06:27:18;10.00;;;2.03;;
46491;SDS011;32206;51.446;6.792;2022-09-09T06:29:44;5.20;;;1.63;;
46491;SDS011;32206;51.446;6.792;2022-09-09T06:32:09;5.95;;;1.50;;
46491;SDS011;32206;51.446;6.792;2022-09-09T06:34:35;4.60;;;1.70;;
46491;SDS011;32206;51.446;6.792;2022-09-09T06:37:01;6.85;;;1.27;;
46491;SDS011;32206;51.446;6.792;2022-09-09T06:39:27;9.75;;;2.45;;
46491;SDS011;32206;51.446;6.792;2022-09-09T06:41:53;9.05;;;1.75;;
46491;SDS011;32206;51.446;6.792;2022-09-09T06:44:19;10.05;;;1.60;;
46491;SDS011;32206;51.446;6.792;2022-09-09T06:46:45;3.58;;;1.40;;
46491;SDS011;32206;51.446;6.792;2022-09-09T06:49:13;5.20;;;1.45;;
46491;SDS011;32206;51.446;6.792;2022-09-09T06:51:39;7.40;;;1.50;;
46491;SDS011;32206;51.446;6.792;2022-09-09T06:54:07;9.27;;;1.58;;
46491;SDS011;32206;51.446;6.792;2022-09-09T06:56:35;7.32;;;2.60;;
46491;SDS011;32206;51.446;6.792;2022-09-09T06:59:03;6.82;;;1.45;;
46491;SDS011;32206;51.446;6.792;2022-09-09T07:01:33;8.20;;;2.03;;
46491;SDS011;32206;51.446;6.792;2022-09-09T07:04:01;4.88;;;1.52;;
46491;SDS011;32206;51.446;6.792;2022-09-09T07:06:30;6.72;;;2.00;;
46491;SDS011;32206;51.446;6.792;2022-09-09T07:08:58;7.43;;;1.50;;
46491;SDS011;32206;51.446;6.792;2022-09-09T07:11:29;4.85;;;1.30;;
46491;SDS011;32206;51.446;6.792;2022-09-09T07:13:57;9.32;;;1.73;;
46491;SDS011;32206;51.446;6.792;2022-09-09T07:16:24;7.90;;;1.42;;
46491;SDS011;32206;51.446;6.792;2022-09-09T07:18:50;7.60;;;1.50;;
46491;SDS011;32206;51.446;6.792;2022-09-09T07:21:26;8.38;;;1.23;;
46491;SDS011;32206;51.446;6.792;2022-09-09T07:23:52;9.25;;;1.23;;
46491;SDS011;32206;51.446;6.792;2022-09-09T07:26:19;3.33;;;1.15;;
46491;SDS011;32206;51.446;6.792;2022-09-09T07:28:46;4.18;;;1.00;;
46491;SDS011;32206;51.446;6.792;2022-09-09T07:31:14;4.25;;;1.30;;
46491;SDS011;32206;51.446;6.792;2022-09-09T07:33:42;10.70;;;1.40;;
46491;SDS011;32206;51.446;6.792;2022-09-09T07:36:09;5.45;;;1.50;;
46491;SDS011;32206;51.446;6.792;2022-09-09T07:38:41;5.63;;;1.55;;
46491;SDS011;32206;51.446;6.792;2022-09-09T07:41:10;6.50;;;1.25;;
46491;SDS011;32206;51.446;6.792;2022-09-09T07:43:38;5.63;;;1.60;;
46491;SDS011;32206;51.446;6.792;2022-09-09T07:46:05;9.10;;;1.45;;
46491;SDS011;32206;51.446;6.792;2022-09-09T07:48:31;5.10;;;1.13;;
46491;SDS011;32206;51.446;6.792;2022-09-09T07:51:07;9.23;;;1.20;;
46491;SDS011;32206;51.446;6.792;2022-09-09T07:53:36;5.20;;;0.82;;
46491;SDS011;32206;51.446;6.792;2022-09-09T07:56:07;3.30;;;0.90;;
46491;SDS011;32206;51.446;6.792;2022-09-09T07:58:34;3.17;;;0.80;;
46491;SDS011;32206;51.446;6.792;2022-09-09T08:01:06;11.60;;;1.42;;
46491;SDS011;32206;51.446;6.792;2022-09-09T08:03:36;3.53;;;0.77;;
46491;SDS011;32206;51.446;6.792;2022-09-09T08:06:03;4.30;;;0.82;;
46491;SDS011;32206;51.446;6.792;2022-09-09T08:08:32;3.83;;;1.02;;
46491;SDS011;32206;51.446;6.792;2022-09-09T08:11:16;6.25;;;1.17;;
46491;SDS011;32206;51.446;6.792;2022-09-09T08:13:43;10.13;;;1.50;;
46491;SDS011;32206;51.446;6.792;2022-09-09T08:16:10;6.35;;;1.20;;
46491;SDS011;32206;51.446;6.792;2022-09-09T08:18:38;3.95;;;1.45;;
46491;SDS011;32206;51.446;6.792;2022-09-09T08:21:08;4.03;;;0.90;;
46491;SDS011;32206;51.446;6.792;2022-09-09T08:23:41;9.77;;;1.00;;
46491;SDS011;32206;51.446;6.792;2022-09-09T08:26:12;6.07;;;1.00;;
46491;SDS011;32206;51.446;6.792;2022-09-09T08:28:39;4.53;;;1.08;;
46491;SDS011;32206;51.446;6.792;2022-09-09T08:31:27;2.28;;;0.90;;
46491;SDS011;32206;51.446;6.792;2022-09-09T08:33:55;3.38;;;0.60;;
46491;SDS011;32206;51.446;6.792;2022-09-09T08:36:22;4.70;;;0.93;;
46491;SDS011;32206;51.446;6.792;2022-09-09T08:38:50;5.85;;;0.77;;
46491;SDS011;32206;51.446;6.792;2022-09-09T08:44:25;2.25;;;0.88;;
46491;SDS011;32206;51.446;6.792;2022-09-09T08:58:04;4.05;;;0.90;;
46491;SDS011;32206;51.446;6.792;2022-09-09T09:11:43;6.50;;;0.88;;
46491;SDS011;32206;51.446;6.792;2022-09-09T09:14:24;9.93;;;1.17;;
46491;SDS011;32206;51.446;6.792;2022-09-09T09:16:56;4.53;;;0.93;;
46491;SDS011;32206;51.446;6.792;2022-09-09T09:19:22;9.57;;;1.10;;
46491;SDS011;32206;51.446;6.792;2022-09-09T09:27:16;5.82;;;1.10;;
46491;SDS011;32206;51.446;6.792;2022-09-09T09:30:22;3.70;;;0.60;;
46491;SDS011;32206;51.446;6.792;2022-09-09T09:35:27;6.90;;;0.88;;
46491;SDS011;32206;51.446;6.792;2022-09-09T09:37:53;3.25;;;1.15;;
46491;SDS011;32206;51.446;6.792;2022-09-09T09:40:20;2.80;;;0.70;;
46491;SDS011;32206;51.446;6.792;2022-09-09T09:43:16;4.63;;;0.60;;
46491;SDS011;32206;51.446;6.792;2022-09-09T09:45:44;3.40;;;0.95;;
46491;SDS011;32206;51.446;6.792;2022-09-09T09:48:10;3.97;;;1.10;;
46491;SDS011;32206;51.446;6.792;2022-09-09T09:50:50;3.65;;;0.90;;
46491;SDS011;32206;51.446;6.792;2022-09-09T09:53:28;6.70;;;0.85;;
46491;SDS011;32206;51.446;6.792;2022-09-09T09:55:58;4.80;;;1.25;;
46491;SDS011;32206;51.446;6.792;2022-09-09T09:58:47;6.00;;;0.70;;
46491;SDS011;32206;51.446;6.792;2022-09-09T10:01:22;1.70;;;0.90;;
46491;SDS011;32206;51.446;6.792;2022-09-09T10:04:03;8.20;;;0.70;;
46491;SDS011;32206;51.446;6.792;2022-09-09T10:06:41;5.22;;;1.23;;
46491;SDS011;32206;51.446;6.792;2022-09-09T10:09:23;3.75;;;0.77;;
46491;SDS011;32206;51.446;6.792;2022-09-09T10:15:02;6.10;;;0.77;;
46491;SDS011;32206;51.446;6.792;2022-09-09T10:18:15;4.63;;;0.85;;
46491;SDS011;32206;51.446;6.792;2022-09-09T10:21:26;1.65;;;0.40;;
46491;SDS011;32206;51.446;6.792;2022-09-09T10:29:35;4.88;;;0.73;;
46491;SDS011;32206;51.446;6.792;2022-09-09T10:40:34;1.98;;;0.65;;
46491;SDS011;32206;51.446;6.792;2022-09-09T10:43:20;4.65;;;0.98;;
46491;SDS011;32206;51.446;6.792;2022-09-09T10:48:44;8.60;;;1.02;;
46491;SDS011;32206;51.446;6.792;2022-09-09T10:57:16;4.57;;;0.82;;
46491;SDS011;32206;51.446;6.792;2022-09-09T10:59:47;3.55;;;0.82;;
46491;SDS011;32206;51.446;6.792;2022-09-09T11:02:25;3.20;;;0.70;;
46491;SDS011;32206;51.446;6.792;2022-09-09T11:04:53;1.00;;;0.40;;
46491;SDS011;32206;51.446;6.792;2022-09-09T11:07:42;5.38;;;0.98;;
46491;SDS011;32206;51.446;6.792;2022-09-09T11:13:20;3.40;;;0.70;;
46491;SDS011;32206;51.446;6.792;2022-09-09T11:15:52;3.08;;;0.73;;
46491;SDS011;32206;51.446;6.792;2022-09-09T11:18:23;2.40;;;0.77;;
46491;SDS011;32206;51.446;6.792;2022-09-09T11:20:50;5.20;;;0.90;;
46491;SDS011;32206;51.446;6.792;2022-09-09T11:23:22;4.47;;;0.98;;
46491;SDS011;32206;51.446;6.792;2022-09-09T11:26:07;1.30;;;0.57;;
46491;SDS011;32206;51.446;6.792;2022-09-09T11:41:49;2.75;;;0.60;;
46491;SDS011;32206;51.446;6.792;2022-09-09T11:44:19;2.03;;;0.43;;
46491;SDS011;32206;51.446;6.792;2022-09-09T11:46:53;4.40;;;0.85;;
46491;SDS011;32206;51.446;6.792;2022-09-09T11:49:26;4.10;;;1.00;;
46491;SDS011;32206;51.446;6.792;2022-09-09T11:52:21;3.80;;;0.50;;
46491;SDS011;32206;51.446;6.792;2022-09-09T11:54:51;6.82;;;1.10;;
46491;SDS011;32206;51.446;6.792;2022-09-09T11:57:25;4.05;;;0.60;;
46491;SDS011;32206;51.446;6.792;2022-09-09T11:59:55;0.80;;;0.32;;
46491;SDS011;32206;51.446;6.792;2022-09-09T12:12:34;1.30;;;0.47;;
46491;SDS011;32206;51.446;6.792;2022-09-09T12:17:36;1.42;;;0.43;;
46491;SDS011;32206;51.446;6.792;2022-09-09T12:34:25;2.88;;;0.43;;
46491;SDS011;32206;51.446;6.792;2022-09-09T12:37:00;4.07;;;0.50;;
46491;SDS011;32206;51.446;6.792;2022-09-09T12:39:40;2.85;;;0.60;;
46491;SDS011;32206;51.446;6.792;2022-09-09T12:42:27;2.65;;;0.95;;
46491;SDS011;32206;51.446;6.792;2022-09-09T12:45:00;0.95;;;0.40;;
46491;SDS011;32206;51.446;6.792;2022-09-09T12:49:57;5.25;;;0.70;;
46491;SDS011;32206;51.446;6.792;2022-09-09T12:52:24;1.77;;;0.40;;
46491;SDS011;32206;51.446;6.792;2022-09-09T12:54:57;0.80;;;0.57;;
46491;SDS011;32206;51.446;6.792;2022-09-09T12:57:25;2.67;;;0.60;;
46491;SDS011;32206;51.446;6.792;2022-09-09T13:00:03;3.55;;;0.60;;
46491;SDS011;32206;51.446;6.792;2022-09-09T13:02:30;3.10;;;1.00;;
46491;SDS011;32206;51.446;6.792;2022-09-09T13:05:05;2.17;;;0.80;;
46491;SDS011;32206;51.446;6.792;2022-09-09T13:07:38;6.32;;;1.00;;
46491;SDS011;32206;51.446;6.792;2022-09-09T13:10:03;2.25;;;0.60;;
46491;SDS011;32206;51.446;6.792;2022-09-09T13:12:29;2.33;;;0.60;;
46491;SDS011;32206;51.446;6.792;2022-09-09T13:14:55;2.58;;;0.70;;
46491;SDS011;32206;51.446;6.792;2022-09-09T13:17:22;2.38;;;0.80;;
46491;SDS011;32206;51.446;6.792;2022-09-09T13:19:50;1.52;;;0.75;;
46491;SDS011;32206;51.446;6.792;2022-09-09T13:27:31;6.40;;;3.15;;
46491;SDS011;32206;51.446;6.792;2022-09-09T13:29:59;6.75;;;3.35;;
46491;SDS011;32206;51.446;6.792;2022-09-09T13:32:25;7.55;;;3.40;;
46491;SDS011;32206;51.446;6.792;2022-09-09T13:34:53;8.80;;;3.20;;
46491;SDS011;32206;51.446;6.792;2022-09-09T13:37:34;5.25;;;2.63;;
46491;SDS011;32206;51.446;6.792;2022-09-09T13:40:04;10.63;;;2.78;;
46491;SDS011;32206;51.446;6.792;2022-09-09T13:42:32;8.25;;;2.38;;
46491;SDS011;32206;51.446;6.792;2022-09-09T13:45:02;6.50;;;2.60;;
46491;SDS011;32206;51.446;6.792;2022-09-09T13:47:33;8.35;;;2.72;;
46491;SDS011;32206;51.446;6.792;2022-09-09T13:52:52;4.35;;;1.08;;
46491;SDS011;32206;51.446;6.792;2022-09-09T13:55:22;6.32;;;1.80;;
46491;SDS011;32206;51.446;6.792;2022-09-09T13:57:52;7.25;;;1.98;;
46491;SDS011;32206;51.446;6.792;2022-09-09T14:00:20;6.53;;;2.60;;
46491;SDS011;32206;51.446;6.792;2022-09-09T14:02:46;8.23;;;2.58;;
46491;SDS011;32206;51.446;6.792;2022-09-09T14:05:13;6.13;;;2.20;;
46491;SDS011;32206;51.446;6.792;2022-09-09T14:07:41;2.63;;;1.38;;
46491;SDS011;32206;51.446;6.792;2022-09-09T14:10:08;6.53;;;1.00;;
46491;SDS011;32206;51.446;6.792;2022-09-09T14:12:34;5.38;;;0.88;;
46491;SDS011;32206;51.446;6.792;2022-09-09T14:15:01;2.55;;;1.05;;
46491;SDS011;32206;51.446;6.792;2022-09-09T14:17:27;3.80;;;1.73;;
46491;SDS011;32206;51.446;6.792;2022-09-09T14:19:55;8.35;;;1.75;;
46491;SDS011;32206;51.446;6.792;2022-09-09T14:22:23;5.68;;;1.83;;
46491;SDS011;32206;51.446;6.792;2022-09-09T14:24:49;3.33;;;0.90;;
46491;SDS011;32206;51.446;6.792;2022-09-09T14:27:16;3.53;;;1.05;;
46491;SDS011;32206;51.446;6.792;2022-09-09T14:29:42;5.22;;;0.93;;
46491;SDS011;32206;51.446;6.792;2022-09-09T14:32:09;5.63;;;1.05;;
46491;SDS011;32206;51.446;6.792;2022-09-09T14:34:35;2.20;;;1.17;;
46491;SDS011;32206;51.446;6.792;2022-09-09T14:37:01;5.63;;;1.30;;
46491;SDS011;32206;51.446;6.792;2022-09-09T14:39:26;2.13;;;0.80;;
46491;SDS011;32206;51.446;6.792;2022-09-09T14:41:52;2.30;;;0.65;;
46491;SDS011;32206;51.446;6.792;2022-09-09T14:44:18;2.88;;;0.70;;
46491;SDS011;32206;51.446;6.792;2022-09-09T14:46:43;3.42;;;0.40;;
46491;SDS011;32206;51.446;6.792;2022-09-09T14:49:09;2.47;;;0.38;;
46491;SDS011;32206;51.446;6.792;2022-09-09T14:51:37;1.02;;;0.30;;
46491;SDS011;32206;51.446;6.792;2022-09-09T14:54:03;3.17;;;0.43;;
46491;SDS011;32206;51.446;6.792;2022-09-09T14:56:30;1.88;;;0.30;;
46491;SDS011;32206;51.446;6.792;2022-09-09T14:58:59;1.25;;;0.40;;
46491;SDS011;32206;51.446;6.792;2022-09-09T15:01:28;2.75;;;0.60;;
46491;SDS011;32206;51.446;6.792;2022-09-09T15:03:56;0.82;;;0.47;;
46491;SDS011;32206;51.446;6.792;2022-09-09T15:06:24;0.40;;;0.38;;
46491;SDS011;32206;51.446;6.792;2022-09-09T15:08:51;1.05;;;0.30;;
46491;SDS011;32206;51.446;6.792;2022-09-09T15:11:18;1.13;;;0.40;;
46491;SDS011;32206;51.446;6.792;2022-09-09T15:13:45;6.03;;;0.50;;
46491;SDS011;32206;51.446;6.792;2022-09-09T15:18:44;1.75;;;0.70;;
46491;SDS011;32206;51.446;6.792;2022-09-09T15:21:15;3.08;;;0.50;;
46491;SDS011;32206;51.446;6.792;2022-09-09T15:23:44;3.13;;;0.70;;
46491;SDS011;32206;51.446;6.792;2022-09-09T15:26:10;2.25;;;1.00;;
46491;SDS011;32206;51.446;6.792;2022-09-09T15:28:37;2.17;;;1.48;;
46491;SDS011;32206;51.446;6.792;2022-09-09T15:31:07;3.42;;;1.70;;
46491;SDS011;32206;51.446;6.792;2022-09-09T15:38:41;8.52;;;1.23;;
46491;SDS011;32206;51.446;6.792;2022-09-09T15:41:06;3.03;;;0.85;;
46491;SDS011;32206;51.446;6.792;2022-09-09T15:43:32;2.15;;;0.68;;
46491;SDS011;32206;51.446;6.792;2022-09-09T15:45:59;1.60;;;0.50;;
46491;SDS011;32206;51.446;6.792;2022-09-09T15:48:52;1.13;;;0.60;;
46491;SDS011;32206;51.446;6.792;2022-09-09T15:51:22;1.08;;;0.57;;
46491;SDS011;32206;51.446;6.792;2022-09-09T15:54:08;1.80;;;0.55;;
46491;SDS011;32206;51.446;6.792;2022-09-09T15:56:45;0.98;;;0.30;;
46491;SDS011;32206;51.446;6.792;2022-09-09T15:59:12;0.52;;;0.30;;
46491;SDS011;32206;51.446;6.792;2022-09-09T16:01:39;0.32;;;0.32;;
46491;SDS011;32206;51.446;6.792;2022-09-09T16:04:05;2.15;;;0.50;;
46491;SDS011;32206;51.446;6.792;2022-09-09T16:06:31;1.48;;;0.40;;
46491;SDS011;32206;51.446;6.792;2022-09-09T16:08:58;0.75;;;0.35;;
46491;SDS011;32206;51.446;6.792;2022-09-09T16:11:26;1.35;;;0.35;;
46491;SDS011;32206;51.446;6.792;2022-09-09T16:13:58;1.73;;;0.55;;
46491;SDS011;32206;51.446;6.792;2022-09-09T16:16:25;0.47;;;0.30;;
46491;SDS011;32206;51.446;6.792;2022-09-09T16:18:54;0.60;;;0.28;;
46491;SDS011;32206;51.446;6.792;2022-09-09T16:21:23;1.52;;;0.50;;
46491;SDS011;32206;51.446;6.792;2022-09-09T16:23:51;3.70;;;0.28;;
46491;SDS011;32206;51.446;6.792;2022-09-09T16:26:20;1.73;;;0.30;;
46491;SDS011;32206;51.446;6.792;2022-09-09T16:28:46;1.90;;;0.60;;
46491;SDS011;32206;51.446;6.792;2022-09-09T16:31:13;1.05;;;0.28;;
46491;SDS011;32206;51.446;6.792;2022-09-09T16:33:42;1.73;;;0.43;;
46491;SDS011;32206;51.446;6.792;2022-09-09T16:36:09;2.42;;;0.50;;
46491;SDS011;32206;51.446;6.792;2022-09-09T16:38:36;4.03;;;0.45;;
46491;SDS011;32206;51.446;6.792;2022-09-09T16:41:02;2.00;;;0.50;;
46491;SDS011;32206;51.446;6.792;2022-09-09T16:43:30;2.95;;;0.57;;
46491;SDS011;32206;51.446;6.792;2022-09-09T16:45:57;1.98;;;0.50;;
46491;SDS011;32206;51.446;6.792;2022-09-09T16:48:25;0.60;;;0.60;;
46491;SDS011;32206;51.446;6.792;2022-09-09T16:51:05;1.10;;;0.40;;
46491;SDS011;32206;51.446;6.792;2022-09-09T16:53:32;2.03;;;0.60;;
46491;SDS011;32206;51.446;6.792;2022-09-09T16:56:20;5.13;;;0.57;;
46491;SDS011;32206;51.446;6.792;2022-09-09T16:58:53;1.83;;;0.70;;
46491;SDS011;32206;51.446;6.792;2022-09-09T17:01:20;3.13;;;0.90;;
46491;SDS011;32206;51.446;6.792;2022-09-09T17:03:54;2.25;;;0.70;;
46491;SDS011;32206;51.446;6.792;2022-09-09T17:06:20;2.25;;;1.17;;
46491;SDS011;32206;51.446;6.792;2022-09-09T17:08:47;2.30;;;1.02;;
46491;SDS011;32206;51.446;6.792;2022-09-09T17:13:43;1.92;;;1.10;;
46491;SDS011;32206;51.446;6.792;2022-09-09T17:16:10;1.40;;;0.88;;
46491;SDS011;32206;51.446;6.792;2022-09-09T17:18:36;3.25;;;1.10;;
46491;SDS011;32206;51.446;6.792;2022-09-09T17:21:03;2.92;;;0.93;;
46491;SDS011;32206;51.446;6.792;2022-09-09T17:23:35;4.53;;;1.73;;
46491;SDS011;32206;51.446;6.792;2022-09-09T17:26:05;3.35;;;0.90;;
46491;SDS011;32206;51.446;6.792;2022-09-09T17:28:32;4.85;;;1.10;;
46491;SDS011;32206;51.446;6.792;2022-09-09T17:30:59;1.98;;;0.80;;
46491;SDS011;32206;51.446;6.792;2022-09-09T17:33:27;2.28;;;1.15;;
46491;SDS011;32206;51.446;6.792;2022-09-09T17:35:59;1.23;;;0.95;;
46491;SDS011;32206;51.446;6.792;2022-09-09T17:38:27;1.20;;;0.80;;
46491;SDS011;32206;51.446;6.792;2022-09-09T17:43:35;2.50;;;0.95;;
46491;SDS011;32206;51.446;6.792;2022-09-09T17:46:06;1.00;;;0.70;;
46491;SDS011;32206;51.446;6.792;2022-09-09T17:48:40;4.60;;;1.23;;
46491;SDS011;32206;51.446;6.792;2022-09-09T17:51:08;2.90;;;0.90;;
46491;SDS011;32206;51.446;6.792;2022-09-09T17:53:37;0.82;;;0.60;;
46491;SDS011;32206;51.446;6.792;2022-09-09T17:56:04;2.92;;;1.00;;
46491;SDS011;32206;51.446;6.792;2022-09-09T17:58:32;2.42;;;1.33;;